CheckWX is a tool to help pilots better visualize weather data.  It is not intended as a substitute for an official pre-flight weather briefing.

11:40:46 UTC

KFYM METAR
Fayetteville Municipal Airport
Fayetteville, Tennessee, USA
Current

26 mins ago

KFYM 241115Z AUTO 17006KT 7SM OVC014 24/23 A2990 RMK A01
Observed
Jun-24 @ 11:15 UTC
Wind
  • 170° at 6 KTS
Visibility
7 SM
Flight Rules
MVFR
Cloud Levels
  • Overcast at 1,400' AGL
Temperature
24°C / 75°F
Dewpoint
23°C / 73°F
Humidity
94%
Altimeter
29.9" Hg
Pressure
1012.52 hPa
Previous

41 mins ago

KFYM 241100Z AUTO 18004KT 8SM OVC014 24/23 A2990 RMK A01
Observed
Jun-24 @ 11:00 UTC
Wind
  • 180° at 4 KTS
Visibility
8 SM
Flight Rules
MVFR
Cloud Levels
  • Overcast at 1,400' AGL
Temperature
24°C / 75°F
Dewpoint
23°C / 73°F
Humidity
94%
Altimeter
29.9" Hg
Pressure
1012.52 hPa
Previous

1 hour ago

KFYM 241040Z AUTO 16006KT 8SM OVC015 24/22 A2989 RMK A01
Observed
Jun-24 @ 10:40 UTC
Wind
  • 160° at 6 KTS
Visibility
8 SM
Flight Rules
MVFR
Cloud Levels
  • Overcast at 1,500' AGL
Temperature
24°C / 75°F
Dewpoint
22°C / 72°F
Humidity
89%
Altimeter
29.89" Hg
Pressure
1012.22 hPa